Capitol Logistics 251


PANC
Ted Stevens Anchorage International Airport
Anchorage, Alaska, US
KHSV
Huntsville International Airport
Huntsville, Alabama, US

Route Details

Aircraft Information
Primary: Boeing 767-300BDSF
Backup: Not Available
Route Data
Distance: 2850nm
Sched. Duration: 6h 00m
Avg. Duration: 6h 16m (+16m)
Times Flown: 8
Recm'd Route: TED YESKA NCA13 YXY J515 YYE J537 YPE J601 XD YWV J475 VLN J483 MOT ABR Q19 DSM J45 IRK FAM J151 VUZ
Planned Altitude: 33,000ft
Origin Wx: PANC 210953Z 17005KT 10SM SCT070 M06/M06 A2891 RMK AO2 SLP792 I1000 T10561056 $
Dest. Wx: KHSV 210953Z AUTO 01011KT 10SM CLR M02/M06 A3050 RMK AO2 SLP331 T10171061
Notes:

Financial History
Total Freight: 1,003,956lbs
Average Load: 125,495lbs/flt
Fuel Used: 732,986lbs
Avg. Fuel Used: 91,623lbs/flt
Fuel Expense: $896,357
Avg. Fuel Expense: $112,045
Avg. Fuel Cost: $1.22/lbs
Total Gross Income: $2,016,194
Pilot Pay: $1,672
Total Expenses: $218,165
Total Revenue: $890,780
Average Revenue: $252,024.26